sensor_id;sensor_type;location;lat;lon;timestamp;pressure;altitude;pressure_sealevel;temperature;humidity
23677;BME280;31493;49.058;12.190;2022-11-20T00:01:39;95495.84;;;-0.40;100.00
23677;BME280;31493;49.058;12.190;2022-11-20T00:04:06;95489.38;;;-0.49;100.00
23677;BME280;31493;49.058;12.190;2022-11-20T00:06:33;95501.63;;;-0.35;100.00
23677;BME280;31493;49.058;12.190;2022-11-20T00:09:00;95490.81;;;-0.42;100.00
23677;BME280;31493;49.058;12.190;2022-11-20T00:11:28;95504.31;;;-0.65;100.00
23677;BME280;31493;49.058;12.190;2022-11-20T00:13:57;95507.81;;;-0.69;100.00
23677;BME280;31493;49.058;12.190;2022-11-20T00:16:27;95506.38;;;-0.76;100.00
23677;BME280;31493;49.058;12.190;2022-11-20T00:18:54;95506.22;;;-0.71;100.00
23677;BME280;31493;49.058;12.190;2022-11-20T00:21:23;95509.72;;;-0.75;100.00
23677;BME280;31493;49.058;12.190;2022-11-20T00:23:51;95505.97;;;-0.64;100.00
23677;BME280;31493;49.058;12.190;2022-11-20T00:26:19;95500.47;;;-0.51;100.00
23677;BME280;31493;49.058;12.190;2022-11-20T00:28:49;95498.41;;;-0.40;100.00
23677;BME280;31493;49.058;12.190;2022-11-20T00:31:17;95505.69;;;-0.31;100.00
23677;BME280;31493;49.058;12.190;2022-11-20T00:33:46;95479.00;;;-0.43;100.00
23677;BME280;31493;49.058;12.190;2022-11-20T00:36:14;95501.03;;;-0.18;100.00
23677;BME280;31493;49.058;12.190;2022-11-20T00:38:42;95491.16;;;-0.03;100.00
23677;BME280;31493;49.058;12.190;2022-11-20T00:41:14;95495.66;;;-0.34;100.00
23677;BME280;31493;49.058;12.190;2022-11-20T00:43:42;95496.78;;;-0.18;100.00
23677;BME280;31493;49.058;12.190;2022-11-20T00:46:10;95500.34;;;0.02;100.00
23677;BME280;31493;49.058;12.190;2022-11-20T00:48:39;95507.94;;;-0.22;100.00
23677;BME280;31493;49.058;12.190;2022-11-20T00:51:07;95502.84;;;-0.22;100.00
23677;BME280;31493;49.058;12.190;2022-11-20T00:53:35;95503.84;;;-0.51;100.00
23677;BME280;31493;49.058;12.190;2022-11-20T00:56:04;95512.09;;;-0.44;100.00
23677;BME280;31493;49.058;12.190;2022-11-20T00:58:33;95500.53;;;-0.53;100.00
23677;BME280;31493;49.058;12.190;2022-11-20T01:01:00;95493.16;;;-0.36;100.00
23677;BME280;31493;49.058;12.190;2022-11-20T01:03:31;95494.75;;;-0.33;100.00
23677;BME280;31493;49.058;12.190;2022-11-20T01:06:00;95499.84;;;-0.33;100.00
23677;BME280;31493;49.058;12.190;2022-11-20T01:08:30;95506.53;;;-0.56;100.00
23677;BME280;31493;49.058;12.190;2022-11-20T01:10:59;95509.03;;;-0.54;100.00
23677;BME280;31493;49.058;12.190;2022-11-20T01:13:26;95504.16;;;-0.60;100.00
23677;BME280;31493;49.058;12.190;2022-11-20T01:16:08;95503.97;;;-0.56;100.00
23677;BME280;31493;49.058;12.190;2022-11-20T01:18:37;95518.66;;;-0.64;100.00
23677;BME280;31493;49.058;12.190;2022-11-20T01:21:07;95516.97;;;-0.63;100.00
23677;BME280;31493;49.058;12.190;2022-11-20T01:23:38;95516.34;;;-0.20;100.00
23677;BME280;31493;49.058;12.190;2022-11-20T01:26:08;95530.63;;;-0.16;100.00
23677;BME280;31493;49.058;12.190;2022-11-20T01:28:35;95526.00;;;-0.05;100.00
23677;BME280;31493;49.058;12.190;2022-11-20T01:31:11;95524.94;;;-0.22;100.00
23677;BME280;31493;49.058;12.190;2022-11-20T01:33:39;95524.66;;;-0.40;100.00
23677;BME280;31493;49.058;12.190;2022-11-20T01:36:07;95529.22;;;-0.49;100.00
23677;BME280;31493;49.058;12.190;2022-11-20T01:38:35;95524.13;;;-0.49;100.00
23677;BME280;31493;49.058;12.190;2022-11-20T01:41:02;95514.06;;;-0.52;100.00
23677;BME280;31493;49.058;12.190;2022-11-20T01:43:29;95516.88;;;-0.35;100.00
23677;BME280;31493;49.058;12.190;2022-11-20T01:45:59;95519.94;;;-0.25;100.00
23677;BME280;31493;49.058;12.190;2022-11-20T01:48:30;95518.66;;;-0.12;100.00
23677;BME280;31493;49.058;12.190;2022-11-20T01:50:59;95520.09;;;-0.30;100.00
23677;BME280;31493;49.058;12.190;2022-11-20T01:53:31;95522.88;;;-0.38;100.00
23677;BME280;31493;49.058;12.190;2022-11-20T01:56:01;95519.69;;;-0.18;100.00
23677;BME280;31493;49.058;12.190;2022-11-20T01:58:33;95518.31;;;-0.28;100.00
23677;BME280;31493;49.058;12.190;2022-11-20T02:01:02;95517.31;;;0.01;100.00
23677;BME280;31493;49.058;12.190;2022-11-20T02:03:30;95519.28;;;-0.07;100.00
23677;BME280;31493;49.058;12.190;2022-11-20T02:06:02;95515.47;;;0.05;100.00
23677;BME280;31493;49.058;12.190;2022-11-20T02:08:31;95516.97;;;0.10;100.00
23677;BME280;31493;49.058;12.190;2022-11-20T02:11:00;95502.47;;;0.12;100.00
23677;BME280;31493;49.058;12.190;2022-11-20T02:13:27;95510.25;;;0.09;100.00
23677;BME280;31493;49.058;12.190;2022-11-20T02:16:19;95502.91;;;0.23;100.00
23677;BME280;31493;49.058;12.190;2022-11-20T02:18:46;95509.50;;;0.06;100.00
23677;BME280;31493;49.058;12.190;2022-11-20T02:21:30;95506.66;;;0.15;100.00
23677;BME280;31493;49.058;12.190;2022-11-20T02:24:03;95509.72;;;-0.01;100.00
23677;BME280;31493;49.058;12.190;2022-11-20T02:26:33;95510.63;;;-0.02;100.00
23677;BME280;31493;49.058;12.190;2022-11-20T02:29:02;95513.34;;;-0.06;100.00
23677;BME280;31493;49.058;12.190;2022-11-20T02:31:35;95487.34;;;0.09;100.00
23677;BME280;31493;49.058;12.190;2022-11-20T02:34:02;95506.75;;;0.12;100.00
23677;BME280;31493;49.058;12.190;2022-11-20T02:36:30;95496.69;;;0.32;100.00
23677;BME280;31493;49.058;12.190;2022-11-20T02:38:58;95492.72;;;0.25;100.00
23677;BME280;31493;49.058;12.190;2022-11-20T02:41:32;95496.63;;;0.34;100.00
23677;BME280;31493;49.058;12.190;2022-11-20T02:44:00;95502.03;;;0.24;100.00
23677;BME280;31493;49.058;12.190;2022-11-20T02:46:27;95499.03;;;0.37;100.00
23677;BME280;31493;49.058;12.190;2022-11-20T02:48:54;95506.91;;;0.31;100.00
23677;BME280;31493;49.058;12.190;2022-11-20T02:51:21;95496.94;;;0.24;100.00
23677;BME280;31493;49.058;12.190;2022-11-20T02:53:48;95493.91;;;0.15;100.00
23677;BME280;31493;49.058;12.190;2022-11-20T02:56:15;95493.09;;;0.38;100.00
23677;BME280;31493;49.058;12.190;2022-11-20T02:58:43;95497.59;;;0.30;100.00
23677;BME280;31493;49.058;12.190;2022-11-20T03:01:10;95499.03;;;0.37;100.00
23677;BME280;31493;49.058;12.190;2022-11-20T03:03:38;95492.41;;;0.33;100.00
23677;BME280;31493;49.058;12.190;2022-11-20T03:06:05;95491.63;;;0.31;100.00
23677;BME280;31493;49.058;12.190;2022-11-20T03:08:33;95497.34;;;0.37;100.00
23677;BME280;31493;49.058;12.190;2022-11-20T03:11:05;95486.63;;;0.51;100.00
23677;BME280;31493;49.058;12.190;2022-11-20T03:13:33;95483.00;;;0.35;100.00
23677;BME280;31493;49.058;12.190;2022-11-20T03:16:09;95485.25;;;0.42;100.00
23677;BME280;31493;49.058;12.190;2022-11-20T03:18:37;95493.63;;;0.46;100.00
23677;BME280;31493;49.058;12.190;2022-11-20T03:21:05;95475.88;;;0.43;100.00
23677;BME280;31493;49.058;12.190;2022-11-20T03:23:32;95474.97;;;0.22;100.00
23677;BME280;31493;49.058;12.190;2022-11-20T03:26:10;95486.22;;;0.40;100.00
23677;BME280;31493;49.058;12.190;2022-11-20T03:28:38;95483.59;;;0.41;100.00
23677;BME280;31493;49.058;12.190;2022-11-20T03:31:09;95482.34;;;0.30;100.00
23677;BME280;31493;49.058;12.190;2022-11-20T03:33:37;95481.19;;;0.15;100.00
23677;BME280;31493;49.058;12.190;2022-11-20T03:36:06;95480.66;;;0.07;100.00
23677;BME280;31493;49.058;12.190;2022-11-20T03:38:34;95489.13;;;0.07;100.00
23677;BME280;31493;49.058;12.190;2022-11-20T03:41:02;95486.72;;;0.26;100.00
23677;BME280;31493;49.058;12.190;2022-11-20T03:43:29;95488.38;;;0.27;100.00
23677;BME280;31493;49.058;12.190;2022-11-20T03:45:57;95486.53;;;0.31;100.00
23677;BME280;31493;49.058;12.190;2022-11-20T03:48:25;95495.13;;;0.28;100.00
23677;BME280;31493;49.058;12.190;2022-11-20T03:50:52;95480.06;;;0.22;100.00
23677;BME280;31493;49.058;12.190;2022-11-20T03:53:20;95493.72;;;0.43;100.00
23677;BME280;31493;49.058;12.190;2022-11-20T03:55:50;95488.81;;;0.38;100.00
23677;BME280;31493;49.058;12.190;2022-11-20T03:58:17;95492.53;;;0.30;100.00
23677;BME280;31493;49.058;12.190;2022-11-20T04:00:44;95491.63;;;0.31;100.00
23677;BME280;31493;49.058;12.190;2022-11-20T04:03:11;95506.06;;;0.30;100.00
23677;BME280;31493;49.058;12.190;2022-11-20T04:05:40;95490.75;;;0.32;100.00
23677;BME280;31493;49.058;12.190;2022-11-20T04:08:07;95492.53;;;0.30;100.00
23677;BME280;31493;49.058;12.190;2022-11-20T04:10:34;95501.78;;;0.32;100.00
23677;BME280;31493;49.058;12.190;2022-11-20T04:13:01;95494.22;;;0.29;100.00
23677;BME280;31493;49.058;12.190;2022-11-20T04:15:28;95484.19;;;0.26;100.00
23677;BME280;31493;49.058;12.190;2022-11-20T04:17:55;95500.38;;;0.23;100.00
23677;BME280;31493;49.058;12.190;2022-11-20T04:20:22;95493.41;;;0.29;100.00
23677;BME280;31493;49.058;12.190;2022-11-20T04:22:53;95492.06;;;0.18;100.00
23677;BME280;31493;49.058;12.190;2022-11-20T04:25:20;95493.13;;;0.36;100.00
23677;BME280;31493;49.058;12.190;2022-11-20T04:27:47;95484.63;;;0.37;100.00
23677;BME280;31493;49.058;12.190;2022-11-20T04:30:14;95478.66;;;0.37;100.00
23677;BME280;31493;49.058;12.190;2022-11-20T04:32:41;95486.44;;;0.34;100.00
23677;BME280;31493;49.058;12.190;2022-11-20T04:35:08;95477.91;;;0.35;100.00
23677;BME280;31493;49.058;12.190;2022-11-20T04:37:35;95476.84;;;0.40;100.00
23677;BME280;31493;49.058;12.190;2022-11-20T04:40:05;95481.03;;;0.41;100.00
23677;BME280;31493;49.058;12.190;2022-11-20T04:42:32;95468.31;;;0.41;100.00
23677;BME280;31493;49.058;12.190;2022-11-20T04:44:59;95472.66;;;0.39;100.00
23677;BME280;31493;49.058;12.190;2022-11-20T04:47:26;95469.09;;;0.43;100.00
23677;BME280;31493;49.058;12.190;2022-11-20T04:49:53;95475.66;;;0.49;100.00
23677;BME280;31493;49.058;12.190;2022-11-20T04:52:20;95470.63;;;0.47;100.00
23677;BME280;31493;49.058;12.190;2022-11-20T04:54:47;95481.31;;;0.57;100.00
23677;BME280;31493;49.058;12.190;2022-11-20T04:57:15;95470.88;;;0.63;100.00
23677;BME280;31493;49.058;12.190;2022-11-20T04:59:42;95473.44;;;0.63;100.00
23677;BME280;31493;49.058;12.190;2022-11-20T05:02:10;95475.44;;;0.55;100.00
23677;BME280;31493;49.058;12.190;2022-11-20T05:04:37;95479.66;;;0.56;100.00
23677;BME280;31493;49.058;12.190;2022-11-20T05:07:04;95481.53;;;0.51;100.00
23677;BME280;31493;49.058;12.190;2022-11-20T05:09:31;95485.63;;;0.55;100.00
23677;BME280;31493;49.058;12.190;2022-11-20T05:11:58;95477.16;;;0.54;100.00
23677;BME280;31493;49.058;12.190;2022-11-20T05:14:26;95477.81;;;0.60;100.00
23677;BME280;31493;49.058;12.190;2022-11-20T05:16:53;95472.06;;;0.54;100.00
23677;BME280;31493;49.058;12.190;2022-11-20T05:19:20;95483.94;;;0.56;100.00
23677;BME280;31493;49.058;12.190;2022-11-20T05:21:47;95476.06;;;0.62;100.00
23677;BME280;31493;49.058;12.190;2022-11-20T05:24:14;95473.28;;;0.68;100.00
23677;BME280;31493;49.058;12.190;2022-11-20T05:26:41;95480.69;;;0.74;100.00
23677;BME280;31493;49.058;12.190;2022-11-20T05:29:10;95474.13;;;0.89;100.00
23677;BME280;31493;49.058;12.190;2022-11-20T05:31:38;95478.03;;;0.97;100.00
23677;BME280;31493;49.058;12.190;2022-11-20T05:34:06;95465.53;;;0.91;100.00
23677;BME280;31493;49.058;12.190;2022-11-20T05:36:33;95466.91;;;0.78;100.00
23677;BME280;31493;49.058;12.190;2022-11-20T05:39:00;95464.72;;;0.69;100.00
23677;BME280;31493;49.058;12.190;2022-11-20T05:41:27;95459.25;;;0.78;100.00
23677;BME280;31493;49.058;12.190;2022-11-20T05:43:55;95461.56;;;0.84;100.00
23677;BME280;31493;49.058;12.190;2022-11-20T05:46:23;95466.16;;;0.76;100.00
23677;BME280;31493;49.058;12.190;2022-11-20T05:48:51;95478.16;;;0.72;100.00
23677;BME280;31493;49.058;12.190;2022-11-20T05:51:19;95472.31;;;0.70;100.00
23677;BME280;31493;49.058;12.190;2022-11-20T05:53:46;95474.63;;;0.76;100.00
23677;BME280;31493;49.058;12.190;2022-11-20T05:56:15;95475.38;;;0.78;100.00
23677;BME280;31493;49.058;12.190;2022-11-20T05:58:43;95474.19;;;0.65;100.00
23677;BME280;31493;49.058;12.190;2022-11-20T06:01:13;95482.56;;;0.69;100.00
23677;BME280;31493;49.058;12.190;2022-11-20T06:03:40;95484.91;;;0.73;100.00
23677;BME280;31493;49.058;12.190;2022-11-20T06:06:10;95483.63;;;0.63;100.00
23677;BME280;31493;49.058;12.190;2022-11-20T06:08:37;95475.25;;;0.60;100.00
23677;BME280;31493;49.058;12.190;2022-11-20T06:11:05;95484.78;;;0.54;100.00
23677;BME280;31493;49.058;12.190;2022-11-20T06:13:33;95486.41;;;0.57;100.00
23677;BME280;31493;49.058;12.190;2022-11-20T06:16:01;95489.13;;;0.52;100.00
23677;BME280;31493;49.058;12.190;2022-11-20T06:18:28;95467.69;;;0.58;100.00
23677;BME280;31493;49.058;12.190;2022-11-20T06:21:00;95471.34;;;0.73;100.00
23677;BME280;31493;49.058;12.190;2022-11-20T06:23:29;95470.34;;;0.55;100.00
23677;BME280;31493;49.058;12.190;2022-11-20T06:25:58;95464.38;;;0.56;100.00
23677;BME280;31493;49.058;12.190;2022-11-20T06:28:27;95470.81;;;0.65;100.00
23677;BME280;31493;49.058;12.190;2022-11-20T06:30:54;95479.88;;;0.72;100.00
23677;BME280;31493;49.058;12.190;2022-11-20T06:33:21;95476.41;;;0.74;100.00
23677;BME280;31493;49.058;12.190;2022-11-20T06:35:48;95477.69;;;0.85;100.00
23677;BME280;31493;49.058;12.190;2022-11-20T06:38:15;95478.81;;;0.77;100.00
23677;BME280;31493;49.058;12.190;2022-11-20T06:40:43;95477.94;;;0.78;100.00
23677;BME280;31493;49.058;12.190;2022-11-20T06:43:10;95474.00;;;0.92;100.00
23677;BME280;31493;49.058;12.190;2022-11-20T06:45:37;95480.19;;;0.86;100.00
23677;BME280;31493;49.058;12.190;2022-11-20T06:48:05;95477.88;;;0.80;100.00
23677;BME280;31493;49.058;12.190;2022-11-20T06:50:32;95486.94;;;0.87;100.00
23677;BME280;31493;49.058;12.190;2022-11-20T06:53:01;95482.69;;;0.88;100.00
23677;BME280;31493;49.058;12.190;2022-11-20T06:55:29;95479.78;;;0.75;100.00
23677;BME280;31493;49.058;12.190;2022-11-20T06:57:57;95483.81;;;0.80;100.00
23677;BME280;31493;49.058;12.190;2022-11-20T07:00:24;95483.19;;;0.96;100.00
23677;BME280;31493;49.058;12.190;2022-11-20T07:02:52;95476.91;;;1.04;100.00
23677;BME280;31493;49.058;12.190;2022-11-20T07:05:19;95482.06;;;1.03;100.00
23677;BME280;31493;49.058;12.190;2022-11-20T07:07:46;95489.66;;;1.04;100.00
23677;BME280;31493;49.058;12.190;2022-11-20T07:10:13;95486.22;;;1.05;100.00
23677;BME280;31493;49.058;12.190;2022-11-20T07:12:40;95490.59;;;1.02;100.00
23677;BME280;31493;49.058;12.190;2022-11-20T07:15:08;95482.06;;;1.03;100.00
23677;BME280;31493;49.058;12.190;2022-11-20T07:17:35;95483.84;;;1.01;100.00
23677;BME280;31493;49.058;12.190;2022-11-20T07:20:03;95479.41;;;1.06;100.00
23677;BME280;31493;49.058;12.190;2022-11-20T07:22:30;95481.81;;;1.09;100.00
23677;BME280;31493;49.058;12.190;2022-11-20T07:24:57;95499.16;;;1.21;100.00
23677;BME280;31493;49.058;12.190;2022-11-20T07:27:24;95496.75;;;1.18;100.00
23677;BME280;31493;49.058;12.190;2022-11-20T07:29:51;95495.22;;;1.14;100.00
23677;BME280;31493;49.058;12.190;2022-11-20T07:32:19;95487.13;;;1.25;100.00
23677;BME280;31493;49.058;12.190;2022-11-20T07:34:46;95497.06;;;1.11;100.00
23677;BME280;31493;49.058;12.190;2022-11-20T07:37:14;95488.38;;;1.15;100.00
23677;BME280;31493;49.058;12.190;2022-11-20T07:39:41;95480.66;;;1.16;100.00
23677;BME280;31493;49.058;12.190;2022-11-20T07:42:08;95484.94;;;1.16;100.00
23677;BME280;31493;49.058;12.190;2022-11-20T07:44:36;95484.59;;;1.25;100.00
23677;BME280;31493;49.058;12.190;2022-11-20T07:47:03;95488.69;;;1.29;100.00
23677;BME280;31493;49.058;12.190;2022-11-20T07:49:31;95492.69;;;1.34;100.00
23677;BME280;31493;49.058;12.190;2022-11-20T07:51:58;95483.84;;;1.43;100.00
23677;BME280;31493;49.058;12.190;2022-11-20T07:54:25;95485.84;;;1.35;100.00
23677;BME280;31493;49.058;12.190;2022-11-20T07:56:53;95495.28;;;1.33;100.00
23677;BME280;31493;49.058;12.190;2022-11-20T07:59:20;95487.66;;;1.33;100.00
23677;BME280;31493;49.058;12.190;2022-11-20T08:01:47;95500.56;;;1.28;100.00
23677;BME280;31493;49.058;12.190;2022-11-20T08:04:14;95513.06;;;1.34;100.00
23677;BME280;31493;49.058;12.190;2022-11-20T08:06:46;95506.91;;;1.40;100.00
23677;BME280;31493;49.058;12.190;2022-11-20T08:09:13;95506.88;;;1.42;100.00
23677;BME280;31493;49.058;12.190;2022-11-20T08:11:40;95514.56;;;1.40;100.00
23677;BME280;31493;49.058;12.190;2022-11-20T08:14:24;95494.22;;;1.39;100.00
23677;BME280;31493;49.058;12.190;2022-11-20T08:16:53;95500.63;;;1.49;100.00
23677;BME280;31493;49.058;12.190;2022-11-20T08:19:20;95496.34;;;1.49;100.00
23677;BME280;31493;49.058;12.190;2022-11-20T08:21:48;95489.50;;;1.50;100.00
23677;BME280;31493;49.058;12.190;2022-11-20T08:24:15;95496.72;;;1.60;100.00
23677;BME280;31493;49.058;12.190;2022-11-20T08:26:42;95509.47;;;1.60;100.00
23677;BME280;31493;49.058;12.190;2022-11-20T08:29:09;95500.03;;;1.63;100.00
23677;BME280;31493;49.058;12.190;2022-11-20T08:31:36;95496.66;;;1.62;100.00
23677;BME280;31493;49.058;12.190;2022-11-20T08:34:03;95499.22;;;1.62;100.00
23677;BME280;31493;49.058;12.190;2022-11-20T08:36:32;95516.88;;;1.67;100.00
23677;BME280;31493;49.058;12.190;2022-11-20T08:39:01;95504.06;;;1.68;100.00
23677;BME280;31493;49.058;12.190;2022-11-20T08:41:28;95519.78;;;1.78;100.00
23677;BME280;31493;49.058;12.190;2022-11-20T08:44:00;95514.81;;;1.75;100.00
23677;BME280;31493;49.058;12.190;2022-11-20T08:46:32;95513.19;;;1.74;100.00
23677;BME280;31493;49.058;12.190;2022-11-20T08:48:59;95512.38;;;1.72;100.00
23677;BME280;31493;49.058;12.190;2022-11-20T08:51:27;95508.66;;;1.60;100.00
23677;BME280;31493;49.058;12.190;2022-11-20T08:53:54;95516.16;;;1.63;100.00
23677;BME280;31493;49.058;12.190;2022-11-20T08:56:22;95513.25;;;1.72;100.00
23677;BME280;31493;49.058;12.190;2022-11-20T08:58:50;95509.66;;;1.76;100.00
23677;BME280;31493;49.058;12.190;2022-11-20T09:01:17;95513.81;;;1.79;100.00
23677;BME280;31493;49.058;12.190;2022-11-20T09:03:44;95506.91;;;1.81;100.00
23677;BME280;31493;49.058;12.190;2022-11-20T09:06:12;95519.84;;;1.76;100.00
23677;BME280;31493;49.058;12.190;2022-11-20T09:08:39;95504.09;;;1.87;100.00
23677;BME280;31493;49.058;12.190;2022-11-20T09:11:06;95503.38;;;1.83;100.00
23677;BME280;31493;49.058;12.190;2022-11-20T09:13:35;95509.78;;;1.94;100.00
23677;BME280;31493;49.058;12.190;2022-11-20T09:16:03;95511.78;;;2.06;100.00
23677;BME280;31493;49.058;12.190;2022-11-20T09:18:31;95511.22;;;1.99;100.00
23677;BME280;31493;49.058;12.190;2022-11-20T09:20:59;95502.75;;;1.99;100.00
23677;BME280;31493;49.058;12.190;2022-11-20T09:23:27;95497.63;;;1.99;100.00
23677;BME280;31493;49.058;12.190;2022-11-20T09:25:54;95513.34;;;2.10;100.00
23677;BME280;31493;49.058;12.190;2022-11-20T09:28:25;95502.03;;;2.15;100.00
23677;BME280;31493;49.058;12.190;2022-11-20T09:30:54;95494.50;;;2.31;100.00
23677;BME280;31493;49.058;12.190;2022-11-20T09:33:21;95496.97;;;2.33;100.00
23677;BME280;31493;49.058;12.190;2022-11-20T09:35:48;95496.94;;;2.34;100.00
23677;BME280;31493;49.058;12.190;2022-11-20T09:38:15;95499.13;;;2.42;100.00
23677;BME280;31493;49.058;12.190;2022-11-20T09:40:45;95499.41;;;2.55;100.00
23677;BME280;31493;49.058;12.190;2022-11-20T09:43:18;95498.38;;;2.59;100.00
23677;BME280;31493;49.058;12.190;2022-11-20T09:45:58;95502.38;;;2.64;100.00
23677;BME280;31493;49.058;12.190;2022-11-20T09:48:39;95501.25;;;2.70;100.00
23677;BME280;31493;49.058;12.190;2022-11-20T09:51:19;95500.69;;;2.82;100.00
23677;BME280;31493;49.058;12.190;2022-11-20T09:54:00;95492.72;;;2.88;100.00
23677;BME280;31493;49.058;12.190;2022-11-20T09:56:33;95496.59;;;2.97;100.00
23677;BME280;31493;49.058;12.190;2022-11-20T09:59:02;95497.13;;;3.04;100.00
23677;BME280;31493;49.058;12.190;2022-11-20T10:01:35;95498.63;;;2.90;100.00
23677;BME280;31493;49.058;12.190;2022-11-20T10:04:08;95500.56;;;2.85;100.00
23677;BME280;31493;49.058;12.190;2022-11-20T10:06:41;95508.03;;;2.90;100.00
23677;BME280;31493;49.058;12.190;2022-11-20T10:09:18;95502.75;;;2.93;100.00
23677;BME280;31493;49.058;12.190;2022-11-20T10:11:54;95493.59;;;2.89;100.00
23677;BME280;31493;49.058;12.190;2022-11-20T10:14:35;95501.63;;;2.99;100.00
23677;BME280;31493;49.058;12.190;2022-11-20T10:17:16;95496.22;;;3.05;100.00
23677;BME280;31493;49.058;12.190;2022-11-20T10:20:01;95494.72;;;3.01;100.00
23677;BME280;31493;49.058;12.190;2022-11-20T10:22:39;95496.38;;;3.02;100.00
23677;BME280;31493;49.058;12.190;2022-11-20T10:25:13;95496.31;;;3.03;100.00
23677;BME280;31493;49.058;12.190;2022-11-20T10:27:51;95492.09;;;3.02;100.00
23677;BME280;31493;49.058;12.190;2022-11-20T10:30:23;95478.69;;;2.97;100.00
23677;BME280;31493;49.058;12.190;2022-11-20T10:32:54;95491.19;;;3.03;100.00
23677;BME280;31493;49.058;12.190;2022-11-20T10:35:25;95482.63;;;3.04;100.00
23677;BME280;31493;49.058;12.190;2022-11-20T10:37:57;95479.06;;;3.07;100.00
23677;BME280;31493;49.058;12.190;2022-11-20T10:40:30;95479.47;;;3.16;100.00
23677;BME280;31493;49.058;12.190;2022-11-20T10:43:01;95482.19;;;3.13;100.00
23677;BME280;31493;49.058;12.190;2022-11-20T10:45:36;95480.81;;;3.23;100.00
23677;BME280;31493;49.058;12.190;2022-11-20T10:48:15;95471.28;;;3.27;100.00
23677;BME280;31493;49.058;12.190;2022-11-20T10:51:03;95481.31;;;3.32;100.00
23677;BME280;31493;49.058;12.190;2022-11-20T10:53:53;95470.81;;;3.36;100.00
23677;BME280;31493;49.058;12.190;2022-11-20T10:56:26;95476.84;;;3.35;100.00
23677;BME280;31493;49.058;12.190;2022-11-20T10:59:20;95465.50;;;3.41;100.00
23677;BME280;31493;49.058;12.190;2022-11-20T11:01:51;95464.81;;;3.37;100.00
23677;BME280;31493;49.058;12.190;2022-11-20T11:04:31;95463.63;;;3.44;100.00
23677;BME280;31493;49.058;12.190;2022-11-20T11:07:06;95467.06;;;3.43;100.00
23677;BME280;31493;49.058;12.190;2022-11-20T11:09:38;95461.88;;;3.45;100.00
23677;BME280;31493;49.058;12.190;2022-11-20T11:12:07;95459.97;;;3.48;100.00
23677;BME280;31493;49.058;12.190;2022-11-20T11:14:43;95467.53;;;3.52;100.00
23677;BME280;31493;49.058;12.190;2022-11-20T11:17:23;95457.59;;;3.45;100.00
23677;BME280;31493;49.058;12.190;2022-11-20T11:20:05;95460.44;;;3.57;100.00
23677;BME280;31493;49.058;12.190;2022-11-20T11:22:34;95471.97;;;3.48;100.00
23677;BME280;31493;49.058;12.190;2022-11-20T11:25:02;95453.44;;;3.43;100.00
23677;BME280;31493;49.058;12.190;2022-11-20T11:27:29;95459.94;;;3.50;100.00
23677;BME280;31493;49.058;12.190;2022-11-20T11:30:12;95453.81;;;3.53;100.00
23677;BME280;31493;49.058;12.190;2022-11-20T11:32:40;95453.00;;;3.52;100.00
23677;BME280;31493;49.058;12.190;2022-11-20T11:35:19;95458.63;;;3.59;100.00
23677;BME280;31493;49.058;12.190;2022-11-20T11:37:47;95456.38;;;3.53;100.00
23677;BME280;31493;49.058;12.190;2022-11-20T11:40:15;95446.75;;;3.58;100.00
23677;BME280;31493;49.058;12.190;2022-11-20T11:42:46;95449.91;;;3.63;100.00
23677;BME280;31493;49.058;12.190;2022-11-20T11:45:16;95443.38;;;3.57;100.00
23677;BME280;31493;49.058;12.190;2022-11-20T11:47:45;95448.16;;;3.63;100.00
23677;BME280;31493;49.058;12.190;2022-11-20T11:50:18;95452.38;;;3.64;100.00
23677;BME280;31493;49.058;12.190;2022-11-20T11:52:51;95433.25;;;3.71;100.00
23677;BME280;31493;49.058;12.190;2022-11-20T11:55:28;95438.97;;;3.76;100.00
23677;BME280;31493;49.058;12.190;2022-11-20T11:58:02;95421.19;;;3.73;100.00
23677;BME280;31493;49.058;12.190;2022-11-20T12:00:33;95431.06;;;3.81;100.00
23677;BME280;31493;49.058;12.190;2022-11-20T12:03:03;95434.69;;;3.93;100.00
23677;BME280;31493;49.058;12.190;2022-11-20T12:05:37;95418.56;;;3.75;100.00
23677;BME280;31493;49.058;12.190;2022-11-20T12:08:12;95428.41;;;3.83;100.00
23677;BME280;31493;49.058;12.190;2022-11-20T12:10:45;95436.50;;;3.91;100.00
23677;BME280;31493;49.058;12.190;2022-11-20T12:13:24;95421.97;;;3.91;100.00
23677;BME280;31493;49.058;12.190;2022-11-20T12:15:53;95424.63;;;3.90;100.00
23677;BME280;31493;49.058;12.190;2022-11-20T12:18:21;95420.19;;;3.93;100.00
23677;BME280;31493;49.058;12.190;2022-11-20T12:21:00;95423.25;;;4.00;100.00
23677;BME280;31493;49.058;12.190;2022-11-20T12:23:39;95428.09;;;4.04;100.00
23677;BME280;31493;49.058;12.190;2022-11-20T12:26:16;95415.56;;;4.00;100.00
23677;BME280;31493;49.058;12.190;2022-11-20T12:28:55;95415.88;;;4.10;100.00
23677;BME280;31493;49.058;12.190;2022-11-20T12:31:36;95412.19;;;4.15;100.00
23677;BME280;31493;49.058;12.190;2022-11-20T12:34:13;95406.31;;;4.13;100.00
23677;BME280;31493;49.058;12.190;2022-11-20T12:36:49;95412.19;;;4.15;100.00
23677;BME280;31493;49.058;12.190;2022-11-20T12:39:38;95408.78;;;4.15;100.00
23677;BME280;31493;49.058;12.190;2022-11-20T12:42:31;95421.59;;;4.15;100.00
23677;BME280;31493;49.058;12.190;2022-11-20T12:45:41;95408.78;;;4.15;100.00
23677;BME280;31493;49.058;12.190;2022-11-20T12:48:31;95418.31;;;4.13;100.00
23677;BME280;31493;49.058;12.190;2022-11-20T12:51:15;95412.09;;;4.17;100.00
23677;BME280;31493;49.058;12.190;2022-11-20T12:53:55;95406.00;;;4.19;100.00
23677;BME280;31493;49.058;12.190;2022-11-20T12:56:35;95406.56;;;4.09;100.00
23677;BME280;31493;49.058;12.190;2022-11-20T12:59:20;95401.00;;;4.16;100.00
23677;BME280;31493;49.058;12.190;2022-11-20T13:01:53;95397.53;;;4.17;100.00
23677;BME280;31493;49.058;12.190;2022-11-20T13:04:39;95407.28;;;4.11;100.00